Terminal Aerodrome Forecast
Issued by NWS Twin Cities, MN

Home | Current Version | Previous Version | Text Only | Print | Product List | Glossary Off
Versions: 1 2 3 4 5 6 7 8 9 10 11 12 13 14 15 16 17

000
FTUS43 KMPX 271731
TAFSTC
TAF
KSTC 271731Z 2718/2818 26007KT P6SM SKC
     FM272000 28007KT P6SM SCT080
     FM280100 00000KT P6SM SKC
     FM281000 15004KT P6SM SCT080 BKN250
     FM281400 19013G23KT P6SM BKN150=

USA.gov is the U.S. government's official web portal to all federal, state and local government web resources and services.